Terminal Aerodrome Forecast
Issued by NWS Detroit/Pontiac, MI

Home | Current Version | Previous Version | Text Only | Print | Product List | Glossary On
Versions: 1 2 3 4 5 6 7 8 9 10 11 12 13 14 15 16 17 18 19 20 21 22 23 24 25 26 27 28
979
FTUS43 KDTX 240523
TAFFNT
TAF
KFNT 240523Z 2406/2506 36003KT 3/4SM BR OVC002
      TEMPO 2406/2410 1/4SM FG VV002
     FM241300 VRB03KT 1SM BR OVC003
     FM241500 30004KT 2SM BR OVC008
     FM241800 26005KT 6SM BR OVC018
     FM250300 22003KT 3SM BR OVC012=

USA.gov is the U.S. government's official web portal to all federal, state and local government web resources and services.